Time;durP1;ratioP1;P1;durP2;ratioP2;P2;SDS_P1;SDS_P2;PMS_P1;PMS_P2;Temp;Humidity;BMP_temperature;BMP_pressure;BME280_temperature;BME280_humidity;BME280_pressure;Samples;Min_cycle;Max_cycle;Signal;HPM_P1;HPM_P2
2021/06/04 00:00:13;;;;;;;11.13;7.57;;;;;;;16.37;57.07;100199.31;5112552;28;20409;-72
2021/06/04 00:02:40;;;;;;;13.13;8.93;;;;;;;16.43;56.63;100209.16;5112687;27;20031;-72
2021/06/04 00:05:06;;;;;;;12.75;8.20;;;;;;;16.24;57.13;100206.97;5112470;28;20024;-74
2021/06/04 00:07:32;;;;;;;12.00;8.18;;;;;;;16.17;57.33;100204.75;5112536;28;20058;-72
2021/06/04 00:09:58;;;;;;;11.50;8.60;;;;;;;16.03;57.76;100198.69;5111178;28;20513;-72
2021/06/04 00:12:23;;;;;;;8.20;7.32;;;;;;;16.11;57.38;100204.19;5112219;28;20020;-72
2021/06/04 00:14:49;;;;;;;14.25;7.70;;;;;;;16.26;57.21;100199.81;5112438;28;20484;-73
2021/06/04 00:17:18;;;;;;;8.77;7.65;;;;;;;16.44;56.45;100198.72;5111125;28;20031;-72
2021/06/04 00:19:45;;;;;;;11.73;7.18;;;;;;;16.41;56.51;100197.41;5111141;28;20035;-72
2021/06/04 00:22:22;;;;;;;11.02;7.70;;;;;;;16.46;56.47;100193.53;5110481;28;20416;-73
2021/06/04 00:24:50;;;;;;;19.10;8.95;;;;;;;16.42;56.26;100194.25;5112426;28;20435;-73
2021/06/04 00:27:16;;;;;;;20.52;8.57;;;;;;;16.37;56.18;100194.47;5111807;28;20059;-73
2021/06/04 00:29:43;;;;;;;13.73;8.00;;;;;;;16.39;55.87;100194.13;5110624;28;20485;-73
2021/06/04 00:32:10;;;;;;;10.10;7.60;;;;;;;16.26;56.16;100193.31;5110972;28;20039;-73
2021/06/04 00:34:35;;;;;;;11.85;7.10;;;;;;;16.10;56.61;100196.06;5111889;28;20533;-74
2021/06/04 00:37:01;;;;;;;11.00;8.45;;;;;;;16.14;56.76;100195.00;5111848;28;20115;-73
2021/06/04 00:39:29;;;;;;;8.57;6.97;;;;;;;16.18;56.83;100191.47;5111883;28;20511;-74
2021/06/04 00:41:58;;;;;;;11.00;8.15;;;;;;;16.37;55.76;100183.19;5112154;28;20118;-73
2021/06/04 00:44:26;;;;;;;12.60;7.82;;;;;;;16.45;55.33;100183.41;5111844;28;20028;-73
2021/06/04 00:46:51;;;;;;;10.45;7.53;;;;;;;16.46;55.19;100185.06;5111974;28;20206;-73
2021/06/04 00:49:17;;;;;;;9.10;7.88;;;;;;;16.33;55.57;100185.09;5111825;28;20542;-73
2021/06/04 00:51:45;;;;;;;11.65;7.45;;;;;;;16.37;55.87;100186.00;5111813;28;20443;-72
2021/06/04 00:54:12;;;;;;;8.65;7.47;;;;;;;16.33;55.49;100185.09;5102386;28;20036;-72
2021/06/04 00:56:39;;;;;;;16.45;7.80;;;;;;;16.32;55.69;100189.09;5111700;28;20037;-73
2021/06/04 00:59:12;;;;;;;9.38;7.40;;;;;;;16.33;55.89;100192.72;5111417;28;20190;-72
2021/06/04 01:01:38;;;;;;;8.82;7.15;;;;;;;16.29;56.24;100189.81;5111776;28;20036;-72
2021/06/04 01:04:14;;;;;;;7.90;7.20;;;;;;;16.19;56.15;100191.09;5111566;28;20038;-74
2021/06/04 01:06:57;;;;;;;8.18;7.05;;;;;;;16.20;56.44;100189.13;5111434;28;20174;-73
2021/06/04 01:09:41;;;;;;;14.60;7.75;;;;;;;16.19;56.08;100193.13;5110090;28;20040;-72
2021/06/04 01:12:18;;;;;;;8.48;7.25;;;;;;;16.16;56.32;100194.66;5098459;28;20110;-72
2021/06/04 01:15:02;;;;;;;9.77;7.68;;;;;;;16.16;56.21;100188.16;5110353;28;20070;-72
2021/06/04 01:17:51;;;;;;;11.45;7.10;;;;;;;16.24;55.90;100182.41;5109846;28;20035;-74
2021/06/04 01:20:40;;;;;;;14.73;7.95;;;;;;;16.31;55.36;100184.63;5111057;28;20098;-72
2021/06/04 01:23:31;;;;;;;8.02;7.22;;;;;;;16.32;55.56;100176.97;5111412;28;20310;-74
2021/06/04 01:26:02;;;;;;;12.13;8.05;;;;;;;16.27;55.86;100184.50;5099794;28;20032;-73
2021/06/04 01:28:35;;;;;;;10.05;8.18;;;;;;;16.22;56.14;100183.94;5110656;28;20063;-72
2021/06/04 01:31:09;;;;;;;14.25;7.80;;;;;;;16.01;56.53;100187.72;5111225;28;20047;-72
2021/06/04 01:34:02;;;;;;;9.05;7.50;;;;;;;16.00;56.42;100188.91;5110039;28;20031;-72
2021/06/04 01:36:35;;;;;;;11.38;8.00;;;;;;;15.63;57.29;100194.53;5109712;28;20035;-72
2021/06/04 01:39:07;;;;;;;8.73;7.80;;;;;;;15.42;58.28;100196.28;5109253;28;20509;-72
2021/06/04 01:41:33;;;;;;;12.63;7.95;;;;;;;15.41;57.83;100193.81;5101174;28;20116;-72
2021/06/04 01:44:06;;;;;;;9.48;8.20;;;;;;;15.26;58.10;100196.13;5107218;28;20108;-72
2021/06/04 01:46:36;;;;;;;12.82;7.50;;;;;;;15.14;58.75;100205.41;5108100;28;20127;-73
2021/06/04 01:49:08;;;;;;;10.23;8.02;;;;;;;15.27;58.53;100203.41;5109712;28;20023;-72
2021/06/04 01:51:44;;;;;;;10.48;7.43;;;;;;;15.30;57.87;100199.09;5108817;28;20088;-72
2021/06/04 01:54:19;;;;;;;8.98;7.10;;;;;;;15.40;57.64;100200.63;5109608;28;20028;-74
2021/06/04 01:56:48;;;;;;;9.90;7.28;;;;;;;15.30;58.39;100207.53;5110451;28;20032;-72
2021/06/04 01:59:20;;;;;;;9.18;6.70;;;;;;;15.29;57.95;100208.72;5110565;28;20028;-72
2021/06/04 02:01:51;;;;;;;12.13;7.03;;;;;;;15.50;57.19;100207.78;5110819;28;20032;-73
2021/06/04 02:04:37;;;;;;;10.23;6.35;;;;;;;15.68;55.99;100208.38;5110605;28;20023;-72
2021/06/04 02:07:05;;;;;;;10.57;7.05;;;;;;;15.62;56.04;100207.81;5110529;28;20031;-73
2021/06/04 02:09:31;;;;;;;8.60;7.18;;;;;;;15.56;56.11;100210.03;5110310;28;20492;-72
2021/06/04 02:11:57;;;;;;;10.98;7.10;;;;;;;15.58;56.34;100209.69;5102877;28;20032;-72
2021/06/04 02:14:38;;;;;;;7.43;6.65;;;;;;;15.42;56.01;100209.53;5104483;28;20032;-73
2021/06/04 02:17:13;;;;;;;9.85;6.90;;;;;;;15.32;56.93;100218.44;5109387;28;20031;-73
2021/06/04 02:19:53;;;;;;;10.38;6.85;;;;;;;15.45;56.52;100220.16;5110298;28;20031;-73
2021/06/04 02:22:21;;;;;;;8.43;7.40;;;;;;;15.36;56.33;100219.41;5109401;28;20127;-72
2021/06/04 02:25:00;;;;;;;11.10;6.57;;;;;;;15.34;56.90;100228.22;5110393;28;20035;-72
2021/06/04 02:27:34;;;;;;;16.48;8.45;;;;;;;15.42;55.97;100224.47;5110187;28;20047;-72
2021/06/04 02:30:05;;;;;;;8.85;6.72;;;;;;;15.55;56.00;100222.47;5110189;28;20081;-72
2021/06/04 02:32:42;;;;;;;10.70;6.32;;;;;;;15.64;55.50;100224.38;5110472;28;20413;-73
2021/06/04 02:35:10;;;;;;;11.23;6.57;;;;;;;15.34;55.96;100224.59;5109073;28;20028;-72
2021/06/04 02:37:39;;;;;;;12.82;6.53;;;;;;;15.05;56.37;100226.38;5109024;28;20031;-72
2021/06/04 02:40:25;;;;;;;8.15;6.10;;;;;;;14.70;58.07;100230.31;5110175;28;20024;-72
2021/06/04 02:42:55;;;;;;;9.00;6.75;;;;;;;14.56;58.30;100239.88;5110242;28;20088;-72
2021/06/04 02:45:30;;;;;;;9.77;6.32;;;;;;;14.58;58.16;100236.69;5112504;28;20031;-73
2021/06/04 02:48:00;;;;;;;10.80;6.70;;;;;;;14.79;57.50;100241.53;5114273;28;20032;-74
2021/06/04 02:50:35;;;;;;;17.90;10.38;;;;;;;14.86;57.48;100241.81;5113926;28;20031;-73
2021/06/04 02:53:16;;;;;;;12.30;8.27;;;;;;;14.78;58.33;100249.16;5112836;28;20102;-74
2021/06/04 02:56:05;;;;;;;13.93;8.77;;;;;;;14.63;58.62;100244.13;5112392;28;20192;-73
2021/06/04 02:58:31;;;;;;;12.70;9.77;;;;;;;14.91;57.59;100250.03;5114027;28;20405;-72
2021/06/04 03:00:56;;;;;;;16.88;11.70;;;;;;;15.01;57.16;100241.16;5112211;28;20035;-72
2021/06/04 03:03:22;;;;;;;13.40;9.60;;;;;;;15.02;56.92;100244.78;5113957;28;20492;-72
2021/06/04 03:05:48;;;;;;;13.30;7.03;;;;;;;14.94;56.91;100238.06;5112750;28;20119;-73
2021/06/04 03:08:15;;;;;;;14.00;7.32;;;;;;;14.90;56.89;100239.94;5113775;28;20032;-72
2021/06/04 03:10:45;;;;;;;11.05;7.07;;;;;;;14.88;57.19;100251.53;5113712;28;20032;-72
2021/06/04 03:13:16;;;;;;;9.13;6.55;;;;;;;14.85;57.39;100246.59;5112261;28;20023;-72
2021/06/04 03:15:47;;;;;;;11.73;7.28;;;;;;;14.89;57.16;100249.56;5112280;28;20122;-73
2021/06/04 03:18:16;;;;;;;14.02;7.90;;;;;;;14.90;57.35;100247.56;5113538;28;20027;-72
2021/06/04 03:20:46;;;;;;;12.15;7.90;;;;;;;14.91;57.25;100252.03;5112203;28;20028;-73
2021/06/04 03:23:16;;;;;;;11.38;7.60;;;;;;;15.02;57.21;100259.69;5113362;28;20039;-73
2021/06/04 03:25:47;;;;;;;15.63;7.70;;;;;;;15.00;57.25;100259.22;5112260;28;20032;-73
2021/06/04 03:28:16;;;;;;;20.40;8.05;;;;;;;14.98;57.46;100258.75;5113260;28;20052;-72
2021/06/04 03:30:45;;;;;;;18.98;7.47;;;;;;;15.02;57.57;100256.88;5113119;28;20039;-73
2021/06/04 03:33:14;;;;;;;17.48;8.25;;;;;;;14.97;57.57;100253.47;5111826;28;20409;-73
2021/06/04 03:35:40;;;;;;;12.43;8.07;;;;;;;15.05;57.42;100261.00;5111829;28;20416;-74
2021/06/04 03:38:06;;;;;;;16.98;7.93;;;;;;;15.06;57.58;100259.84;5113311;28;20015;-73
2021/06/04 03:40:33;;;;;;;10.60;8.18;;;;;;;15.09;57.65;100255.50;5111601;28;20048;-72
2021/06/04 03:43:01;;;;;;;13.80;7.60;;;;;;;15.07;57.53;100258.66;5113086;28;20063;-74
2021/06/04 03:45:31;;;;;;;19.08;7.88;;;;;;;15.18;57.84;100263.88;5112736;28;20027;-72
2021/06/04 03:47:57;;;;;;;12.43;7.78;;;;;;;15.11;57.52;100262.44;5113659;28;20027;-72
2021/06/04 03:50:23;;;;;;;17.23;7.45;;;;;;;15.04;57.63;100270.63;5111550;28;20038;-74
2021/06/04 03:52:48;;;;;;;12.13;7.65;;;;;;;14.81;58.38;100267.34;5113015;28;20028;-73
2021/06/04 03:55:16;;;;;;;14.57;8.45;;;;;;;14.47;59.82;100270.06;5112726;28;20023;-73
2021/06/04 03:57:43;;;;;;;12.55;7.38;;;;;;;14.57;59.60;100266.00;5110567;28;20507;-72
2021/06/04 04:00:27;;;;;;;11.57;7.32;;;;;;;14.60;59.42;100270.97;5112857;28;20060;-72
2021/06/04 04:02:53;;;;;;;13.13;7.13;;;;;;;14.52;59.81;100269.84;5109893;28;20020;-72
2021/06/04 04:05:20;;;;;;;17.15;7.78;;;;;;;14.60;59.89;100268.16;5112703;28;20094;-72
2021/06/04 04:07:45;;;;;;;18.38;6.90;;;;;;;14.69;59.91;100268.91;5111109;28;20028;-73
2021/06/04 04:10:11;;;;;;;22.45;7.53;;;;;;;14.70;60.11;100273.38;5112606;28;20023;-73
2021/06/04 04:12:37;;;;;;;22.65;8.35;;;;;;;14.64;59.87;100269.13;5111224;28;20039;-73
2021/06/04 04:15:06;;;;;;;10.93;7.43;;;;;;;14.65;60.27;100267.94;5112256;28;20481;-71
2021/06/04 04:17:31;;;;;;;11.45;7.88;;;;;;;14.70;59.89;100269.75;5112595;28;20386;-73
2021/06/04 04:19:57;;;;;;;12.27;8.02;;;;;;;14.36;60.32;100275.28;5112056;28;20041;-72
2021/06/04 04:22:24;;;;;;;10.48;7.80;;;;;;;14.36;60.80;100274.44;5112777;28;20085;-72
2021/06/04 04:24:50;;;;;;;20.58;7.60;;;;;;;14.32;60.79;100277.97;5112087;28;20032;-73
2021/06/04 04:27:16;;;;;;;14.07;7.10;;;;;;;14.42;61.21;100278.69;5112263;28;20051;-74
2021/06/04 04:29:41;;;;;;;13.63;7.97;;;;;;;14.50;61.58;100277.81;5106328;28;20460;-73
2021/06/04 04:32:13;;;;;;;11.95;7.70;;;;;;;14.60;60.89;100279.44;5111345;28;20077;-74
2021/06/04 04:34:43;;;;;;;16.63;7.20;;;;;;;14.69;60.69;100282.97;5105391;28;20493;-70
2021/06/04 04:37:11;;;;;;;13.80;6.88;;;;;;;14.82;61.21;100275.47;5106929;28;20032;-70
2021/06/04 04:39:40;;;;;;;14.27;6.97;;;;;;;14.78;61.10;100285.78;5098872;28;20039;-75
2021/06/04 04:42:08;;;;;;;11.80;8.10;;;;;;;14.77;60.96;100288.94;5112218;28;20027;-76
2021/06/04 04:44:36;;;;;;;14.15;8.68;;;;;;;14.92;60.80;100293.94;5111203;28;20047;-73
2021/06/04 04:47:04;;;;;;;13.30;7.90;;;;;;;14.80;61.46;100288.22;5112052;28;20067;-69
2021/06/04 04:49:30;;;;;;;10.60;8.38;;;;;;;14.98;61.25;100295.38;5112425;28;20042;-73
2021/06/04 04:51:55;;;;;;;13.60;8.55;;;;;;;15.10;61.12;100293.78;5111959;28;20032;-73
2021/06/04 04:54:21;;;;;;;8.93;7.65;;;;;;;15.27;61.61;100290.78;5111669;27;20417;-72
2021/06/04 04:56:48;;;;;;;27.10;9.32;;;;;;;15.24;60.74;100294.31;5112111;28;20077;-68
2021/06/04 04:59:14;;;;;;;11.55;8.13;;;;;;;15.26;60.72;100291.97;5111383;28;20040;-72
2021/06/04 05:01:40;;;;;;;10.90;7.82;;;;;;;15.40;60.45;100299.28;5111688;28;20039;-71
2021/06/04 05:04:07;;;;;;;15.63;7.45;;;;;;;15.43;59.69;100293.78;5110540;28;20032;-72
2021/06/04 05:06:34;;;;;;;7.15;6.45;;;;;;;15.40;59.57;100290.81;5109425;28;20031;-71
2021/06/04 05:08:59;;;;;;;11.38;6.63;;;;;;;15.35;58.61;100289.03;5109265;28;20429;-74
2021/06/04 05:11:25;;;;;;;10.88;6.72;;;;;;;15.39;59.57;100292.84;5109238;28;20028;-74
2021/06/04 05:13:50;;;;;;;9.23;7.13;;;;;;;15.42;59.40;100294.13;5107977;28;20493;-71
2021/06/04 05:16:17;;;;;;;10.32;7.35;;;;;;;15.69;58.67;100294.66;5109201;28;20028;-74
2021/06/04 05:18:43;;;;;;;15.38;7.15;;;;;;;15.77;58.15;100296.53;5109990;28;20096;-74
2021/06/04 05:21:11;;;;;;;31.17;7.78;;;;;;;15.80;58.09;100304.28;5111348;28;20509;-73
2021/06/04 05:23:37;;;;;;;17.05;8.15;;;;;;;15.91;58.46;100292.59;5110991;28;20027;-74
2021/06/04 05:26:02;;;;;;;11.50;7.43;;;;;;;15.98;57.88;100290.00;5111343;28;20116;-71
2021/06/04 05:28:28;;;;;;;11.65;7.45;;;;;;;16.10;58.30;100298.47;5109686;28;20035;-72
2021/06/04 05:30:59;;;;;;;12.05;6.55;;;;;;;16.09;58.16;100307.28;5109720;28;20111;-74
2021/06/04 05:33:32;;;;;;;8.23;6.88;;;;;;;16.11;57.73;100310.59;5109878;28;20055;-72
2021/06/04 05:35:59;;;;;;;12.55;7.85;;;;;;;16.25;57.90;100308.25;5111174;28;20043;-71
2021/06/04 05:38:24;;;;;;;13.43;7.00;;;;;;;16.30;57.89;100312.84;5110866;28;20501;-72
2021/06/04 05:40:51;;;;;;;12.95;7.43;;;;;;;16.30;57.61;100312.84;5109574;28;20038;-71
2021/06/04 05:43:21;;;;;;;10.82;6.38;;;;;;;16.37;57.11;100309.41;5110906;28;20036;-71
2021/06/04 05:45:48;;;;;;;10.63;7.00;;;;;;;16.41;56.56;100314.00;5109689;28;20027;-74
2021/06/04 05:48:15;;;;;;;9.88;7.03;;;;;;;16.68;56.94;100317.25;5109614;28;20511;-74
2021/06/04 05:50:44;;;;;;;10.32;7.00;;;;;;;16.70;57.37;100314.06;5110958;28;20043;-71
2021/06/04 05:53:12;;;;;;;24.27;8.75;;;;;;;17.02;56.61;100304.94;5110840;28;20493;-71
2021/06/04 05:55:39;;;;;;;12.68;6.95;;;;;;;17.14;55.71;100307.72;5110599;28;20024;-72
2021/06/04 05:58:08;;;;;;;8.57;6.70;;;;;;;17.35;54.18;100301.03;5110752;28;20123;-72
2021/06/04 06:00:39;;;;;;;7.03;6.18;;;;;;;17.56;53.36;100302.81;5110507;28;20051;-76
2021/06/04 06:03:05;;;;;;;12.00;6.72;;;;;;;17.53;52.90;100308.00;5110617;28;20076;-76
2021/06/04 06:05:31;;;;;;;7.63;6.15;;;;;;;17.69;52.85;100307.19;5109334;28;20020;-73
2021/06/04 06:07:57;;;;;;;13.80;6.82;;;;;;;17.76;52.33;100303.72;5110555;28;20539;-74
2021/06/04 06:10:22;;;;;;;13.35;6.82;;;;;;;17.77;52.49;100303.38;5109136;28;20054;-71
2021/06/04 06:12:49;;;;;;;9.70;6.70;;;;;;;18.01;52.14;100307.22;5110695;28;20024;-73
2021/06/04 06:15:16;;;;;;;9.40;6.80;;;;;;;18.06;51.91;100309.78;5109344;28;20015;-76
2021/06/04 06:17:41;;;;;;;13.07;7.85;;;;;;;18.26;51.49;100309.03;5110426;28;20031;-72
2021/06/04 06:20:10;;;;;;;7.88;6.00;;;;;;;18.46;52.56;100307.09;5111074;28;20064;-71
2021/06/04 06:22:35;;;;;;;13.98;6.22;;;;;;;18.90;50.60;100309.69;5114681;28;20508;-71
2021/06/04 06:25:02;;;;;;;9.30;6.53;;;;;;;18.88;49.51;100306.41;5114362;28;20045;-71
2021/06/04 06:27:27;;;;;;;10.48;6.32;;;;;;;18.90;49.59;100314.56;5112874;28;20046;-72
2021/06/04 06:29:53;;;;;;;8.23;6.90;;;;;;;18.99;49.68;100303.00;5113095;28;20035;-75
2021/06/04 06:32:20;;;;;;;7.90;5.90;;;;;;;19.05;50.03;100301.53;5114938;28;20019;-76
2021/06/04 06:34:48;;;;;;;12.55;7.13;;;;;;;19.10;48.91;100306.91;5114417;27;20023;-71
2021/06/04 06:37:14;;;;;;;11.55;5.50;;;;;;;19.11;47.38;100310.56;5113190;28;20031;-77
2021/06/04 06:39:40;;;;;;;9.40;5.90;;;;;;;19.07;47.40;100305.63;5114324;28;20412;-71
2021/06/04 06:42:06;;;;;;;9.70;5.82;;;;;;;19.03;47.68;100304.75;5114440;28;20024;-71
2021/06/04 06:44:32;;;;;;;11.23;7.75;;;;;;;18.93;48.72;100306.13;5114274;28;20035;-71
2021/06/04 06:46:58;;;;;;;14.98;6.50;;;;;;;19.07;49.65;100302.00;5114240;28;20469;-79
2021/06/04 06:49:25;;;;;;;8.18;5.78;;;;;;;19.17;49.54;100307.03;5112676;28;20116;-74
2021/06/04 06:51:51;;;;;;;7.53;6.72;;;;;;;19.20;50.03;100294.97;5114231;28;20027;-74
2021/06/04 06:54:20;;;;;;;13.52;6.35;;;;;;;19.16;50.20;100299.72;5113936;28;20025;-73
2021/06/04 06:56:51;;;;;;;18.83;6.57;;;;;;;19.25;50.00;100296.69;5114157;28;20039;-78
2021/06/04 06:59:16;;;;;;;14.70;6.63;;;;;;;19.10;50.77;100295.56;5112320;28;20024;-78
2021/06/04 07:01:42;;;;;;;8.18;5.60;;;;;;;19.08;51.96;100300.81;5112603;28;20085;-70
2021/06/04 07:04:08;;;;;;;8.45;6.50;;;;;;;19.49;51.27;100292.69;5113799;28;20035;-73
2021/06/04 07:06:36;;;;;;;7.75;5.78;;;;;;;19.83;49.24;100296.94;5113643;28;20039;-72
2021/06/04 07:09:04;;;;;;;6.20;5.40;;;;;;;19.86;47.92;100287.66;5112350;28;20019;-72
2021/06/04 07:11:35;;;;;;;7.45;5.63;;;;;;;19.85;47.88;100291.69;5112174;28;20053;-72
2021/06/04 07:14:01;;;;;;;8.73;6.80;;;;;;;19.81;48.99;100285.94;5112195;28;20507;-72
2021/06/04 07:16:27;;;;;;;15.65;5.82;;;;;;;20.06;47.32;100288.44;5113436;28;20064;-72
2021/06/04 07:18:53;;;;;;;7.35;6.20;;;;;;;20.12;46.93;100295.44;5113469;28;20047;-73
2021/06/04 07:21:21;;;;;;;18.65;7.00;;;;;;;20.27;47.25;100293.66;5113348;28;20397;-77
2021/06/04 07:23:48;;;;;;;6.20;5.60;;;;;;;20.11;46.91;100290.97;5112129;28;20058;-77
2021/06/04 07:26:14;;;;;;;8.35;5.97;;;;;;;20.38;47.77;100285.28;5113253;27;20168;-77
2021/06/04 07:28:40;;;;;;;8.50;6.28;;;;;;;20.56;47.51;100294.06;5113057;28;20051;-72
2021/06/04 07:31:10;;;;;;;8.40;6.07;;;;;;;20.78;46.35;100291.53;5110488;28;20047;-72
2021/06/04 07:33:42;;;;;;;9.65;5.75;;;;;;;20.80;44.93;100291.13;5112941;28;20020;-72
2021/06/04 07:36:14;;;;;;;8.73;4.95;;;;;;;20.85;44.96;100285.97;5112971;28;20130;-72
2021/06/04 07:38:39;;;;;;;7.43;5.93;;;;;;;20.62;45.58;100289.69;5111745;28;20023;-76
2021/06/04 07:41:08;;;;;;;6.85;5.80;;;;;;;20.56;47.25;100291.22;5111606;28;20085;-77
2021/06/04 07:43:38;;;;;;;8.90;5.30;;;;;;;20.75;45.92;100292.28;5112710;28;20020;-77
2021/06/04 07:46:06;;;;;;;7.93;5.25;;;;;;;20.88;43.13;100292.91;5113022;28;20481;-71
2021/06/04 07:48:31;;;;;;;8.77;5.88;;;;;;;20.98;43.34;100295.06;5112567;28;20374;-72
2021/06/04 07:50:57;;;;;;;10.98;5.20;;;;;;;21.17;42.72;100291.25;5111478;28;20057;-72
2021/06/04 07:53:30;;;;;;;7.22;5.78;;;;;;;21.03;45.26;100279.69;5113265;28;20059;-72
2021/06/04 07:55:56;;;;;;;11.05;5.80;;;;;;;21.23;43.08;100283.19;5112812;28;20031;-77
2021/06/04 07:58:22;;;;;;;15.25;7.28;;;;;;;21.30;44.29;100282.44;5111387;28;20076;-78
2021/06/04 08:00:48;;;;;;;12.02;6.20;;;;;;;21.38;45.20;100284.19;5106858;28;20031;-72
2021/06/04 08:03:19;;;;;;;12.20;5.80;;;;;;;21.39;43.39;100290.66;5111631;28;20038;-73
2021/06/04 08:05:45;;;;;;;12.57;6.07;;;;;;;21.47;43.84;100283.84;5110443;28;20035;-78
2021/06/04 08:08:10;;;;;;;7.15;5.70;;;;;;;21.79;42.37;100282.56;5110525;28;20201;-78
2021/06/04 08:10:38;;;;;;;9.52;5.38;;;;;;;21.85;43.14;100284.66;5110476;28;20034;-72
2021/06/04 08:13:06;;;;;;;7.85;5.20;;;;;;;21.81;43.98;100283.81;5108660;28;20489;-78
2021/06/04 08:15:40;;;;;;;9.50;5.55;;;;;;;21.88;42.91;100281.00;5108711;28;20401;-77
2021/06/04 08:18:06;;;;;;;9.13;6.07;;;;;;;21.55;44.78;100281.91;5108747;28;20561;-73
2021/06/04 08:20:35;;;;;;;11.02;5.82;;;;;;;21.68;43.72;100283.28;5110049;28;20089;-72
2021/06/04 08:23:12;;;;;;;8.00;5.82;;;;;;;21.59;43.51;100282.75;5108767;28;20057;-72
2021/06/04 08:25:42;;;;;;;9.27;5.70;;;;;;;21.33;45.40;100287.34;5109993;28;20043;-77
2021/06/04 08:28:08;;;;;;;11.02;5.68;;;;;;;21.30;44.91;100285.28;5110609;28;20122;-77
2021/06/04 08:30:34;;;;;;;14.23;6.18;;;;;;;21.37;45.24;100287.41;5110940;28;20143;-77
2021/06/04 08:33:01;;;;;;;8.60;6.18;;;;;;;21.29;45.11;100281.63;5112003;28;20053;-78
2021/06/04 08:35:29;;;;;;;7.50;5.22;;;;;;;21.36;45.66;100283.75;5111502;28;20031;-77
2021/06/04 08:37:55;;;;;;;8.18;5.13;;;;;;;21.55;44.07;100287.59;5111833;28;20107;-78
2021/06/04 08:40:27;;;;;;;6.45;5.18;;;;;;;21.46;45.66;100285.06;5111635;28;20505;-72
2021/06/04 08:43:28;;;;;;;8.02;6.05;;;;;;;21.67;43.47;100284.50;5110122;28;20023;-73
2021/06/04 08:46:00;;;;;;;8.70;5.68;;;;;;;21.48;45.37;100293.19;5099046;28;20035;-78
2021/06/04 08:48:47;;;;;;;9.00;5.45;;;;;;;21.40;46.24;100295.16;5111679;28;20397;-72
2021/06/04 08:51:18;;;;;;;5.90;4.70;;;;;;;21.55;45.70;100288.41;5111541;28;20031;-72
2021/06/04 08:54:06;;;;;;;6.15;5.55;;;;;;;21.57;45.69;100293.69;5111454;28;20028;-76
2021/06/04 08:56:45;;;;;;;8.65;5.30;;;;;;;21.50;46.51;100287.94;5111728;28;20114;-73
2021/06/04 08:59:13;;;;;;;10.75;5.40;;;;;;;21.42;47.08;100295.59;5111302;28;20565;-72
2021/06/04 09:01:54;;;;;;;7.85;5.60;;;;;;;21.46;46.66;100291.56;5111537;28;20039;-78
2021/06/04 09:04:37;;;;;;;6.07;5.57;;;;;;;21.49;46.74;100287.13;5111205;27;20413;-72
2021/06/04 09:07:14;;;;;;;7.93;5.47;;;;;;;21.60;46.22;100290.09;5111730;28;20039;-78
2021/06/04 09:10:10;;;;;;;7.18;5.63;;;;;;;21.68;46.04;100282.47;5111140;28;20085;-72
2021/06/04 09:12:41;;;;;;;11.82;6.28;;;;;;;22.01;44.57;100284.38;5111277;28;20448;-78
2021/06/04 09:15:09;;;;;;;9.30;5.45;;;;;;;22.01;44.89;100280.72;5103194;28;20489;-78
2021/06/04 09:17:45;;;;;;;33.17;7.13;;;;;;;22.27;44.50;100288.25;5109549;28;20031;-79
2021/06/04 09:20:22;;;;;;;23.80;5.85;;;;;;;22.26;44.58;100280.09;5109546;28;20038;-76
2021/06/04 09:22:54;;;;;;;18.10;6.00;;;;;;;22.46;44.21;100276.97;5111128;28;20023;-78
2021/06/04 09:25:23;;;;;;;17.90;5.72;;;;;;;22.35;42.93;100274.88;5109745;28;20111;-79
2021/06/04 09:28:08;;;;;;;75.85;13.75;;;;;;;22.29;44.19;100274.41;5111046;28;20043;-72
2021/06/04 09:30:57;;;;;;;10.18;5.38;;;;;;;22.27;43.92;100276.06;5110789;28;20067;-72
2021/06/04 09:33:42;;;;;;;12.48;4.88;;;;;;;22.43;40.33;100273.72;5110584;28;20031;-72
2021/06/04 09:36:21;;;;;;;6.43;4.28;;;;;;;22.60;41.21;100262.84;5092947;28;20128;-77
2021/06/04 09:38:53;;;;;;;9.15;4.10;;;;;;;22.70;41.89;100267.78;5109479;28;20146;-77
2021/06/04 09:41:26;;;;;;;6.95;4.78;;;;;;;22.78;42.47;100267.81;5110845;28;20039;-77
2021/06/04 09:44:14;;;;;;;5.03;4.63;;;;;;;22.93;41.88;100268.72;5108389;28;20512;-78
2021/06/04 09:46:49;;;;;;;6.28;3.97;;;;;;;23.37;37.61;100261.94;5090241;28;20036;-79
2021/06/04 09:49:42;;;;;;;9.15;4.80;;;;;;;23.10;38.48;100270.81;5096829;28;20019;-77
2021/06/04 09:52:22;;;;;;;17.25;5.95;;;;;;;23.08;40.92;100264.69;5108569;28;20143;-73
2021/06/04 09:55:16;;;;;;;17.60;4.88;;;;;;;23.22;40.60;100261.06;5094440;28;20051;-72
2021/06/04 09:58:08;;;;;;;8.10;4.22;;;;;;;23.39;37.82;100258.69;5092014;28;20480;-70
2021/06/04 10:00:40;;;;;;;6.55;4.15;;;;;;;23.39;37.52;100253.78;5105076;28;20036;-74
2021/06/04 10:03:26;;;;;;;7.03;4.05;;;;;;;23.75;37.75;100246.50;5110456;28;20019;-75
2021/06/04 10:06:08;;;;;;;10.20;5.53;;;;;;;23.74;38.54;100256.28;5109250;28;20032;-78
2021/06/04 10:08:59;;;;;;;8.85;3.92;;;;;;;24.20;36.82;100249.78;5110570;28;20097;-74
2021/06/04 10:11:46;;;;;;;5.30;4.38;;;;;;;24.52;36.61;100248.06;5072826;28;20035;-69
2021/06/04 10:14:24;;;;;;;4.72;4.28;;;;;;;24.23;37.50;100248.94;5109153;28;20042;-70
2021/06/04 10:19:33;;;;;;;7.60;4.78;;;;;;;24.61;35.68;100247.63;5107359;28;20037;-70
2021/06/04 10:22:14;;;;;;;6.63;4.18;;;;;;;24.46;35.94;100256.25;5096892;28;20059;-69
2021/06/04 10:24:52;;;;;;;6.50;4.88;;;;;;;24.41;35.96;100259.53;5110110;28;20040;-70
2021/06/04 10:27:39;;;;;;;5.97;5.07;;;;;;;24.35;37.00;100249.75;5108785;28;20039;-77
2021/06/04 10:30:13;;;;;;;9.48;5.95;;;;;;;24.50;36.80;100245.66;5108738;28;20118;-78
2021/06/04 10:32:53;;;;;;;5.80;5.15;;;;;;;24.69;37.09;100252.09;5110193;28;20050;-70
2021/06/04 10:35:37;;;;;;;8.35;4.88;;;;;;;24.54;35.06;100246.44;5110408;28;20035;-76
2021/06/04 10:38:13;;;;;;;7.80;5.03;;;;;;;24.39;36.54;100239.13;5096723;28;20669;-76
2021/06/04 10:40:51;;;;;;;7.75;4.93;;;;;;;24.45;36.39;100242.38;5098530;28;20042;-77
2021/06/04 10:43:38;;;;;;;8.65;4.70;;;;;;;24.86;37.19;100238.19;5090655;28;20024;-76
2021/06/04 10:46:13;;;;;;;7.07;4.07;;;;;;;25.28;34.60;100238.38;5100456;28;20090;-74
2021/06/04 10:49:17;;;;;;;5.05;4.03;;;;;;;25.03;35.91;100240.16;5104479;28;20496;-74
2021/06/04 10:51:58;;;;;;;10.30;4.40;;;;;;;25.25;35.07;100245.75;5075404;28;20044;-75
2021/06/04 10:54:42;;;;;;;14.55;4.50;;;;;;;25.19;35.15;100239.66;5096928;28;20523;-79
2021/06/04 10:57:40;;;;;;;7.10;4.20;;;;;;;25.49;34.04;100237.47;5107702;28;20036;-79
2021/06/04 11:00:36;;;;;;;9.15;3.92;;;;;;;25.69;32.66;100236.91;5103279;28;20070;-76
2021/06/04 11:03:25;;;;;;;5.88;3.60;;;;;;;25.28;35.18;100224.88;5105503;28;20034;-76
2021/06/04 11:05:51;;;;;;;4.43;4.03;;;;;;;25.18;36.26;100237.22;5110938;28;20038;-76
2021/06/04 11:08:39;;;;;;;7.40;4.22;;;;;;;25.02;36.03;100227.09;5112512;28;20016;-76
2021/06/04 11:11:35;;;;;;;4.30;3.90;;;;;;;24.93;35.33;100223.84;5113296;28;20614;-78
2021/06/04 11:14:38;;;;;;;4.20;3.80;;;;;;;24.93;34.77;100224.69;5112060;28;20027;-79
2021/06/04 11:17:39;;;;;;;4.22;3.83;;;;;;;24.98;34.68;100222.59;5099738;28;20488;-77
2021/06/04 11:20:14;;;;;;;5.32;3.90;;;;;;;24.74;35.60;100225.97;5113255;28;20051;-77
2021/06/04 11:22:49;;;;;;;11.35;4.25;;;;;;;24.79;35.26;100230.44;5103759;28;20092;-76
2021/06/04 11:25:31;;;;;;;6.70;4.60;;;;;;;24.81;35.94;100225.16;5112149;28;20038;-76
2021/06/04 11:28:02;;;;;;;15.55;5.07;;;;;;;24.80;34.97;100221.47;5111742;28;20039;-76
2021/06/04 11:30:31;;;;;;;5.35;4.25;;;;;;;24.38;37.58;100220.34;5100632;28;20078;-77
2021/06/04 11:33:08;;;;;;;4.43;3.90;;;;;;;24.20;38.46;100221.19;5112980;28;20027;-76
2021/06/04 11:35:49;;;;;;;7.72;4.10;;;;;;;23.99;38.83;100216.31;5110284;28;20028;-76
2021/06/04 11:38:45;;;;;;;5.18;3.42;;;;;;;24.10;39.03;100216.31;5108823;28;20119;-76
2021/06/04 11:41:13;;;;;;;8.70;4.55;;;;;;;24.20;39.04;100220.41;5101741;28;20164;-77
2021/06/04 11:43:42;;;;;;;12.50;4.25;;;;;;;24.21;38.70;100211.41;5093658;28;20103;-77
2021/06/04 11:46:28;;;;;;;10.43;4.35;;;;;;;24.06;39.14;100219.16;5091088;28;20406;-72